Time;durP1;ratioP1;P1;durP2;ratioP2;P2;SDS_P1;SDS_P2;PMS_P1;PMS_P2;Temp;Humidity;BMP_temperature;BMP_pressure;BME280_temperature;BME280_humidity;BME280_pressure;Samples;Min_cycle;Max_cycle;Signal;HPM_P1;HPM_P2
2022/02/10 00:05:45;;;;;;;2.70;2.50;;;;;;;;;;5039624;28;24418;-55
2022/02/10 00:15:59;;;;;;;2.90;2.60;;;;;;;;;;5035208;28;24423;-55
2022/02/10 00:20:57;;;;;;;3.03;2.63;;;;;;;;;;5041853;28;24715;-55
2022/02/10 00:34:11;;;;;;;2.63;2.42;;;;;;;;;;5036371;28;24465;-55
2022/02/10 00:34:31;;;;;;;3.00;2.70;;;;;;;;;;5047687;28;24399;-55
2022/02/10 00:41:59;;;;;;;2.88;2.67;;;;;;;;;;5046023;28;24510;-56
2022/02/10 00:44:25;;;;;;;2.80;2.60;;;;;;;;;;5035053;28;24645;-56
2022/02/10 00:46:50;;;;;;;2.50;2.30;;;;;;;;;;5031086;28;24408;-56
2022/02/10 00:49:16;;;;;;;3.00;2.80;;;;;;;;;;5041578;28;24582;-55
2022/02/10 00:51:41;;;;;;;2.60;2.40;;;;;;;;;;5044746;28;24419;-55
2022/02/10 00:54:07;;;;;;;3.10;2.80;;;;;;;;;;5045396;28;24984;-55
2022/02/10 00:56:32;;;;;;;2.60;2.40;;;;;;;;;;5042065;28;25030;-55
2022/02/10 00:59:12;;;;;;;3.30;3.00;;;;;;;;;;5046817;28;25188;-55
2022/02/10 01:07:13;;;;;;;4.03;3.42;;;;;;;;;;5029026;28;24407;-55
2022/02/10 01:31:34;;;;;;;4.37;3.60;;;;;;;;;;5032147;28;25095;-55
2022/02/10 01:33:59;;;;;;;3.10;2.90;;;;;;;;;;5029035;28;24499;-55
2022/02/10 01:36:24;;;;;;;4.10;3.30;;;;;;;;;;5043050;28;25054;-55
2022/02/10 01:38:49;;;;;;;3.50;3.20;;;;;;;;;;5043227;28;24823;-55
2022/02/10 02:05:45;;;;;;;4.35;3.95;;;;;;;;;;5031250;28;25027;-55
2022/02/10 02:08:11;;;;;;;4.40;4.00;;;;;;;;;;5033914;28;25078;-54
2022/02/10 02:10:36;;;;;;;3.90;3.60;;;;;;;;;;5034213;28;24416;-55
2022/02/10 02:13:02;;;;;;;4.10;3.70;;;;;;;;;;5032641;28;24427;-55
2022/02/10 02:15:27;;;;;;;3.50;3.20;;;;;;;;;;5028918;28;24420;-55
2022/02/10 02:17:53;;;;;;;3.20;3.00;;;;;;;;;;5039044;28;24799;-55
2022/02/10 02:20:18;;;;;;;3.10;2.90;;;;;;;;;;5027579;28;24434;-55
2022/02/10 02:22:43;;;;;;;3.47;3.17;;;;;;;;;;5037065;28;24501;-55
2022/02/10 02:25:08;;;;;;;2.80;2.60;;;;;;;;;;5042766;28;24522;-55
2022/02/10 02:27:47;;;;;;;3.27;2.97;;;;;;;;;;5034032;28;24427;-55
2022/02/10 02:30:27;;;;;;;3.00;2.80;;;;;;;;;;5028338;28;24420;-55
2022/02/10 02:38:38;;;;;;;3.00;2.80;;;;;;;;;;5032660;28;24446;-55
2022/02/10 03:06:22;;;;;;;3.20;2.80;;;;;;;;;;5032691;28;24407;-56
2022/02/10 03:08:25;;;;;;;3.40;3.10;;;;;;;;;;5033838;28;24631;-56
2022/02/10 03:13:25;;;;;;;2.90;2.70;;;;;;;;;;5040826;28;24420;-55
2022/02/10 03:18:43;;;;;;;3.30;2.80;;;;;;;;;;5033660;28;24458;-55
2022/02/10 03:21:35;;;;;;;2.83;2.63;;;;;;;;;;5041601;28;24460;-57
2022/02/10 04:07:38;;;;;;;2.95;2.65;;;;;;;;;;5031094;28;24411;-55
2022/02/10 04:28:44;;;;;;;2.80;2.60;;;;;;;;;;5030705;28;24646;-55
2022/02/10 04:40:15;;;;;;;2.80;2.60;;;;;;;;;;5042308;28;24427;-55
2022/02/10 04:45:18;;;;;;;2.70;2.50;;;;;;;;;;5038694;28;24403;-55
2022/02/10 04:58:34;;;;;;;2.95;2.70;;;;;;;;;;5037006;28;24431;-55
2022/02/10 05:12:16;;;;;;;2.92;2.65;;;;;;;;;;5044703;28;24423;-58
2022/02/10 05:17:07;;;;;;;3.22;2.80;;;;;;;;;;5029811;28;24496;-55
2022/02/10 05:22:37;;;;;;;3.60;3.30;;;;;;;;;;5030241;28;24411;-55
2022/02/10 05:35:34;;;;;;;2.90;2.63;;;;;;;;;;5031502;28;24523;-56
2022/02/10 05:38:10;;;;;;;3.60;3.30;;;;;;;;;;5027413;28;24485;-55
2022/02/10 05:41:20;;;;;;;3.60;3.30;;;;;;;;;;5024450;28;24432;-55
2022/02/10 05:46:24;;;;;;;3.50;3.20;;;;;;;;;;5028445;28;24470;-55
2022/02/10 05:52:05;;;;;;;2.97;2.78;;;;;;;;;;5023724;28;24403;-56
2022/02/10 05:57:28;;;;;;;3.80;3.00;;;;;;;;;;5029908;28;24518;-55
2022/02/10 06:02:55;;;;;;;5.15;3.30;;;;;;;;;;5023491;28;24418;-55
2022/02/10 06:39:02;;;;;;;6.50;4.28;;;;;;;;;;5034377;28;24471;-56
2022/02/10 06:53:59;;;;;;;5.80;4.70;;;;;;;;;;5034669;28;24420;-55
2022/02/10 07:12:58;;;;;;;5.32;4.10;;;;;;;;;;5023179;28;24407;-55
2022/02/10 07:48:01;;;;;;;5.07;4.22;;;;;;;;;;5030757;28;24589;-56
2022/02/10 07:58:18;;;;;;;3.75;3.30;;;;;;;;;;5041040;28;24534;-54
2022/02/10 08:53:09;;;;;;;4.25;3.85;;;;;;;;;;5028162;28;24412;-57
2022/02/10 08:57:40;;;;;;;4.40;4.00;;;;;;;;;;5047830;28;24563;-56
2022/02/10 09:11:28;;;;;;;5.87;4.03;;;;;;;;;;5047725;28;24822;-56
2022/02/10 09:19:03;;;;;;;3.70;3.00;;;;;;;;;;5046190;28;24450;-54
2022/02/10 09:55:03;;;;;;;4.20;2.35;;;;;;;;;;5041168;28;24966;-55
2022/02/10 09:57:30;;;;;;;2.60;2.40;;;;;;;;;;5026541;28;24469;-55
2022/02/10 10:00:22;;;;;;;3.08;2.78;;;;;;;;;;5026898;28;24435;-55
2022/02/10 10:02:53;;;;;;;2.55;2.35;;;;;;;;;;5027801;28;24403;-56
2022/02/10 10:13:29;;;;;;;2.80;2.50;;;;;;;;;;5027034;28;24416;-56
2022/02/10 10:21:19;;;;;;;3.38;2.90;;;;;;;;;;5026202;28;24380;-56
2022/02/10 10:24:10;;;;;;;3.22;2.60;;;;;;;;;;5021454;28;24736;-57
2022/02/10 10:51:52;;;;;;;2.58;2.38;;;;;;;;;;5020644;28;24518;-56
2022/02/10 10:57:10;;;;;;;2.47;2.22;;;;;;;;;;5025415;28;24874;-56
2022/02/10 11:38:42;;;;;;;2.50;2.30;;;;;;;;;;5042965;28;24439;-57
2022/02/10 11:41:27;;;;;;;2.45;2.25;;;;;;;;;;5049716;28;24389;-56
2022/02/10 11:44:12;;;;;;;4.78;3.40;;;;;;;;;;5049627;28;24933;-56
2022/02/10 11:47:34;;;;;;;5.20;3.33;;;;;;;;;;5045517;28;24416;-56
2022/02/10 12:33:18;;;;;;;5.63;5.03;;;;;;;;;;5048740;28;24407;-56
2022/02/10 13:25:22;;;;;;;7.07;5.80;;;;;;;;;;5028658;28;24541;-55
2022/02/10 13:28:11;;;;;;;8.10;6.70;;;;;;;;;;5027501;28;24473;-55
2022/02/10 13:33:57;;;;;;;7.85;7.15;;;;;;;;;;5027642;28;24399;-55
2022/02/10 13:48:05;;;;;;;7.85;6.65;;;;;;;;;;5028252;28;24510;-55
2022/02/10 14:14:52;;;;;;;9.50;8.50;;;;;;;;;;5046031;28;24399;-54
2022/02/10 14:17:29;;;;;;;8.73;7.93;;;;;;;;;;5046150;28;24784;-55
2022/02/10 14:19:59;;;;;;;10.52;8.43;;;;;;;;;;5044855;28;24418;-54
2022/02/10 14:27:40;;;;;;;7.50;6.80;;;;;;;;;;5027014;28;24492;-55
2022/02/10 14:30:05;;;;;;;9.30;8.40;;;;;;;;;;5026604;28;24471;-55
2022/02/10 14:32:34;;;;;;;9.50;8.20;;;;;;;;;;5027365;28;24946;-56
2022/02/10 14:35:11;;;;;;;9.73;8.13;;;;;;;;;;5026434;28;24487;-56
2022/02/10 14:37:53;;;;;;;8.60;7.70;;;;;;;;;;5026112;28;25080;-56
2022/02/10 15:10:56;;;;;;;10.30;9.20;;;;;;;;;;5026945;28;25044;-55
2022/02/10 15:30:04;;;;;;;12.27;10.60;;;;;;;;;;5029267;28;24819;-55
2022/02/10 15:53:55;;;;;;;12.97;11.40;;;;;;;;;;5054110;28;24506;-55
2022/02/10 16:17:45;;;;;;;12.90;11.70;;;;;;;;;;5032962;28;24793;-54
2022/02/10 16:20:17;;;;;;;11.90;10.43;;;;;;;;;;5047858;28;24383;-55
2022/02/10 16:22:58;;;;;;;15.35;12.50;;;;;;;;;;5035020;28;24933;-54
2022/02/10 16:25:25;;;;;;;14.10;12.57;;;;;;;;;;5028266;28;24467;-55
2022/02/10 16:27:56;;;;;;;13.25;12.05;;;;;;;;;;5028413;28;24410;-55
2022/02/10 16:30:22;;;;;;;13.93;12.63;;;;;;;;;;5028324;28;25093;-54
2022/02/10 16:32:47;;;;;;;13.90;11.53;;;;;;;;;;5027832;28;25214;-55
2022/02/10 16:35:12;;;;;;;13.07;11.70;;;;;;;;;;5036395;28;24925;-55
2022/02/10 16:37:39;;;;;;;14.67;12.17;;;;;;;;;;5033213;28;24412;-55
2022/02/10 16:40:05;;;;;;;14.10;12.70;;;;;;;;;;5027860;28;24958;-56
2022/02/10 16:42:30;;;;;;;14.33;12.93;;;;;;;;;;5027832;28;24395;-55
2022/02/10 16:44:55;;;;;;;14.25;12.60;;;;;;;;;;5042978;28;25008;-54
2022/02/10 16:47:20;;;;;;;14.40;12.90;;;;;;;;;;5047907;28;24957;-55
2022/02/10 16:49:49;;;;;;;13.83;12.00;;;;;;;;;;5047432;28;24832;-55
2022/02/10 16:52:20;;;;;;;11.95;10.70;;;;;;;;;;5047667;28;24464;-54
2022/02/10 16:54:47;;;;;;;14.38;12.88;;;;;;;;;;5031272;28;24396;-55
2022/02/10 16:57:24;;;;;;;13.50;12.10;;;;;;;;;;5028048;28;24420;-55
2022/02/10 17:05:02;;;;;;;13.23;11.83;;;;;;;;;;5041677;28;24462;-55
2022/02/10 17:18:24;;;;;;;13.90;12.20;;;;;;;;;;5050410;28;24455;-54
2022/02/10 17:26:51;;;;;;;14.98;12.18;;;;;;;;;;5067293;28;24436;-55
2022/02/10 17:29:35;;;;;;;15.25;13.65;;;;;;;;;;5060663;28;24469;-55
2022/02/10 17:45:18;;;;;;;14.15;12.80;;;;;;;;;;5036203;28;24404;-59
2022/02/10 17:53:22;;;;;;;12.33;11.13;;;;;;;;;;5023372;28;25041;-55
2022/02/10 17:55:47;;;;;;;11.47;10.43;;;;;;;;;;5023260;28;24446;-56
2022/02/10 17:58:12;;;;;;;11.60;10.40;;;;;;;;;;5023482;28;24598;-55
2022/02/10 18:00:37;;;;;;;12.07;10.87;;;;;;;;;;5025150;28;24921;-56
2022/02/10 18:03:03;;;;;;;12.40;11.13;;;;;;;;;;5023699;28;24483;-55
2022/02/10 18:06:06;;;;;;;12.55;11.35;;;;;;;;;;5022968;28;25031;-55
2022/02/10 18:08:23;;;;;;;13.57;12.18;;;;;;;;;;5023410;28;24461;-54
2022/02/10 18:11:21;;;;;;;12.30;11.10;;;;;;;;;;5025050;28;24447;-55
2022/02/10 18:13:51;;;;;;;12.27;10.98;;;;;;;;;;5022867;28;24610;-55
2022/02/10 18:16:24;;;;;;;11.85;10.75;;;;;;;;;;5022458;28;24985;-55
2022/02/10 18:19:13;;;;;;;11.60;10.50;;;;;;;;;;5023259;28;24526;-55
2022/02/10 18:24:47;;;;;;;12.10;11.00;;;;;;;;;;5034413;28;24415;-54
2022/02/10 19:02:49;;;;;;;11.73;10.63;;;;;;;;;;5029630;28;24574;-55
2022/02/10 19:10:11;;;;;;;12.63;11.43;;;;;;;;;;5029288;28;24453;-55
2022/02/10 19:12:46;;;;;;;13.68;12.27;;;;;;;;;;5042883;28;24438;-54
2022/02/10 19:15:44;;;;;;;14.20;12.80;;;;;;;;;;5029800;28;24431;-55
2022/02/10 19:18:05;;;;;;;14.15;12.68;;;;;;;;;;5022216;28;24791;-55
2022/02/10 19:20:32;;;;;;;13.82;12.43;;;;;;;;;;5023274;28;24703;-56
2022/02/10 19:22:57;;;;;;;14.37;12.87;;;;;;;;;;5023445;28;24442;-54
2022/02/10 19:25:22;;;;;;;14.43;12.93;;;;;;;;;;5029355;28;25184;-54
2022/02/10 19:27:48;;;;;;;15.10;13.60;;;;;;;;;;5030922;28;24492;-55
2022/02/10 19:30:14;;;;;;;14.80;13.30;;;;;;;;;;5033606;28;24558;-55
2022/02/10 19:32:43;;;;;;;12.80;11.60;;;;;;;;;;5036194;28;24453;-55
2022/02/10 19:35:09;;;;;;;13.77;12.40;;;;;;;;;;5043496;28;24415;-55
2022/02/10 19:37:34;;;;;;;14.53;13.13;;;;;;;;;;5029872;28;24430;-55
2022/02/10 19:40:01;;;;;;;15.70;14.00;;;;;;;;;;5040157;28;24457;-56
2022/02/10 19:42:29;;;;;;;15.35;13.85;;;;;;;;;;5043752;28;24452;-56
2022/02/10 19:44:57;;;;;;;15.48;13.88;;;;;;;;;;5030303;28;24431;-56
2022/02/10 19:47:22;;;;;;;15.13;13.52;;;;;;;;;;5040790;28;24438;-56
2022/02/10 19:49:48;;;;;;;15.73;14.13;;;;;;;;;;5033687;28;24427;-55
2022/02/10 19:52:14;;;;;;;16.20;14.53;;;;;;;;;;5025598;28;24418;-55
2022/02/10 19:54:46;;;;;;;16.02;14.32;;;;;;;;;;5029129;28;24507;-55
2022/02/10 19:57:11;;;;;;;14.90;13.40;;;;;;;;;;5035820;28;25208;-55
2022/02/10 19:59:36;;;;;;;17.00;15.00;;;;;;;;;;5035512;28;24967;-55
2022/02/10 20:02:03;;;;;;;16.80;15.10;;;;;;;;;;5029263;28;24403;-54
2022/02/10 20:04:30;;;;;;;16.73;15.00;;;;;;;;;;5032670;28;24416;-55
2022/02/10 20:06:55;;;;;;;17.33;15.63;;;;;;;;;;5037233;28;24422;-54
2022/02/10 20:09:20;;;;;;;16.77;14.98;;;;;;;;;;5038623;28;24501;-54
2022/02/10 20:11:50;;;;;;;17.93;16.10;;;;;;;;;;5030142;28;25177;-54
2022/02/10 20:14:16;;;;;;;18.13;15.97;;;;;;;;;;5032026;28;24547;-54
2022/02/10 20:16:41;;;;;;;16.20;14.70;;;;;;;;;;5032891;28;24857;-54
2022/02/10 20:19:08;;;;;;;15.90;14.30;;;;;;;;;;5027767;28;24438;-55
2022/02/10 20:21:33;;;;;;;16.83;15.13;;;;;;;;;;5034159;28;24443;-55
2022/02/10 20:23:58;;;;;;;16.50;14.80;;;;;;;;;;5046266;28;24430;-56
2022/02/10 20:26:24;;;;;;;16.38;14.68;;;;;;;;;;5028416;28;24474;-52
2022/02/10 20:28:49;;;;;;;16.30;14.60;;;;;;;;;;5039129;28;24433;-55
2022/02/10 20:31:14;;;;;;;16.67;14.90;;;;;;;;;;5026883;28;24455;-55
2022/02/10 20:33:40;;;;;;;16.10;14.50;;;;;;;;;;5032553;28;25039;-55
2022/02/10 20:36:06;;;;;;;16.20;14.70;;;;;;;;;;5037695;28;24475;-54
2022/02/10 20:38:33;;;;;;;15.98;14.27;;;;;;;;;;5020131;28;24501;-54
2022/02/10 20:41:03;;;;;;;15.45;13.95;;;;;;;;;;5026106;28;24411;-58
2022/02/10 20:43:28;;;;;;;16.00;14.30;;;;;;;;;;5039365;28;24405;-55
2022/02/10 20:46:02;;;;;;;17.10;15.40;;;;;;;;;;5037049;28;24498;-55
2022/02/10 20:48:29;;;;;;;17.40;15.60;;;;;;;;;;5026736;28;24519;-56
2022/02/10 20:50:57;;;;;;;15.50;13.90;;;;;;;;;;5033647;28;24413;-55
2022/02/10 20:53:24;;;;;;;15.90;14.20;;;;;;;;;;5026570;28;24416;-55
2022/02/10 20:55:50;;;;;;;15.73;14.10;;;;;;;;;;5035646;28;24988;-54
2022/02/10 20:58:19;;;;;;;15.80;14.15;;;;;;;;;;5025353;28;24989;-55
2022/02/10 21:00:44;;;;;;;15.80;14.10;;;;;;;;;;5031631;28;24426;-54
2022/02/10 21:03:10;;;;;;;15.20;13.70;;;;;;;;;;5032760;28;24506;-55
2022/02/10 21:05:39;;;;;;;15.32;13.73;;;;;;;;;;5031828;28;24415;-55
2022/02/10 21:08:14;;;;;;;15.02;13.45;;;;;;;;;;5027486;28;24428;-56
2022/02/10 21:10:40;;;;;;;15.10;13.52;;;;;;;;;;5027461;28;25328;-55
2022/02/10 21:13:07;;;;;;;16.40;14.80;;;;;;;;;;5031304;28;24993;-55
2022/02/10 21:15:40;;;;;;;15.20;13.70;;;;;;;;;;5031388;28;24458;-55
2022/02/10 21:18:06;;;;;;;15.90;14.30;;;;;;;;;;5037388;28;24439;-57
2022/02/10 21:20:34;;;;;;;14.70;13.30;;;;;;;;;;5030218;28;25973;-55
2022/02/10 21:23:07;;;;;;;14.17;12.77;;;;;;;;;;5039271;28;24485;-54
2022/02/10 21:25:36;;;;;;;15.38;13.77;;;;;;;;;;5040344;28;24422;-54
2022/02/10 21:28:08;;;;;;;14.73;13.23;;;;;;;;;;5032664;28;24420;-54
2022/02/10 21:30:33;;;;;;;17.20;15.35;;;;;;;;;;5027942;28;24389;-56
2022/02/10 21:33:01;;;;;;;16.00;14.50;;;;;;;;;;5028027;28;24391;-54
2022/02/10 21:35:44;;;;;;;16.13;14.43;;;;;;;;;;5032109;28;24411;-54
2022/02/10 21:38:17;;;;;;;15.88;14.30;;;;;;;;;;5040007;28;24442;-56
2022/02/10 21:57:05;;;;;;;13.45;12.15;;;;;;;;;;5040795;28;24426;-56
2022/02/10 22:03:17;;;;;;;15.27;13.77;;;;;;;;;;5029159;28;24407;-55
2022/02/10 22:18:32;;;;;;;14.43;13.13;;;;;;;;;;5043126;28;25043;-55
2022/02/10 22:20:59;;;;;;;13.02;11.73;;;;;;;;;;5044875;28;24507;-56
2022/02/10 22:23:26;;;;;;;12.90;11.60;;;;;;;;;;5043752;28;24498;-56
2022/02/10 22:25:53;;;;;;;12.00;10.90;;;;;;;;;;5037974;28;25024;-56
2022/02/10 22:28:34;;;;;;;12.03;10.83;;;;;;;;;;5037665;28;24527;-55
2022/02/10 22:31:21;;;;;;;11.70;10.70;;;;;;;;;;5028166;28;25150;-55
2022/02/10 22:36:30;;;;;;;11.32;10.23;;;;;;;;;;5035883;28;24466;-56
2022/02/10 22:39:01;;;;;;;11.17;10.07;;;;;;;;;;5027876;28;24444;-55
2022/02/10 22:41:26;;;;;;;12.25;11.05;;;;;;;;;;5027777;28;24408;-56
2022/02/10 22:43:51;;;;;;;12.43;11.13;;;;;;;;;;5027297;28;24510;-54
2022/02/10 22:46:17;;;;;;;11.80;10.70;;;;;;;;;;5038126;28;24489;-56
2022/02/10 22:48:47;;;;;;;13.50;12.20;;;;;;;;;;5031217;28;24563;-56
2022/02/10 22:51:12;;;;;;;12.60;11.40;;;;;;;;;;5036936;28;24426;-56
2022/02/10 22:53:38;;;;;;;12.97;11.03;;;;;;;;;;5046140;28;24399;-56
2022/02/10 22:56:06;;;;;;;12.02;10.82;;;;;;;;;;5030323;28;24906;-56
2022/02/10 22:58:31;;;;;;;11.98;10.88;;;;;;;;;;5024998;28;24526;-55
2022/02/10 23:00:56;;;;;;;12.97;11.80;;;;;;;;;;5031673;28;24451;-56
2022/02/10 23:03:25;;;;;;;13.30;12.00;;;;;;;;;;5026111;28;24972;-56
2022/02/10 23:05:50;;;;;;;14.00;12.70;;;;;;;;;;5026395;28;24483;-55
2022/02/10 23:08:16;;;;;;;12.70;11.40;;;;;;;;;;5025579;28;25029;-57
2022/02/10 23:10:45;;;;;;;13.27;11.87;;;;;;;;;;5035627;28;24855;-54
2022/02/10 23:13:12;;;;;;;13.10;11.90;;;;;;;;;;5031594;28;24431;-55
2022/02/10 23:15:38;;;;;;;14.80;13.30;;;;;;;;;;5045159;28;24481;-55
2022/02/10 23:18:07;;;;;;;15.13;13.52;;;;;;;;;;5041785;28;24914;-55
2022/02/10 23:20:33;;;;;;;12.70;11.50;;;;;;;;;;5038467;28;24434;-55
2022/02/10 23:22:58;;;;;;;13.70;12.30;;;;;;;;;;5037910;28;24759;-55
2022/02/10 23:25:24;;;;;;;12.23;11.02;;;;;;;;;;5034078;28;24404;-56
2022/02/10 23:27:49;;;;;;;13.77;12.48;;;;;;;;;;5038996;28;24458;-55
2022/02/10 23:30:17;;;;;;;13.40;12.10;;;;;;;;;;5048427;28;24424;-55
2022/02/10 23:32:42;;;;;;;15.02;13.52;;;;;;;;;;5047586;28;24423;-56
2022/02/10 23:35:18;;;;;;;10.53;9.60;;;;;;;;;;5039658;28;25050;-60
2022/02/10 23:37:44;;;;;;;8.25;7.45;;;;;;;;;;5047830;28;24845;-56
2022/02/10 23:40:09;;;;;;;9.33;7.97;;;;;;;;;;5040554;28;25012;-56
2022/02/10 23:42:35;;;;;;;9.30;8.10;;;;;;;;;;5047289;28;24407;-56
2022/02/10 23:45:11;;;;;;;8.67;7.77;;;;;;;;;;5043558;28;24474;-57
2022/02/10 23:47:36;;;;;;;8.45;7.50;;;;;;;;;;5043835;28;24999;-56
2022/02/10 23:50:01;;;;;;;9.10;7.30;;;;;;;;;;5042881;28;24705;-56
2022/02/10 23:52:27;;;;;;;7.03;6.33;;;;;;;;;;5044404;28;24900;-58
2022/02/10 23:54:57;;;;;;;7.20;6.50;;;;;;;;;;5036666;28;24450;-57
